createdAt,value
2022-09-03T00:00:05.117Z,1.73
2022-09-03T00:02:40.983Z,1.83
2022-09-03T00:05:14.459Z,2.05
2022-09-03T00:07:50.921Z,2.20
2022-09-03T00:10:23.641Z,2.05
2022-09-03T00:12:55.912Z,1.55
2022-09-03T00:15:29.796Z,1.48
2022-09-03T00:18:01.534Z,1.20
2022-09-03T00:20:34.711Z,1.70
2022-09-03T00:23:07.554Z,1.45
2022-09-03T00:25:47.084Z,1.92
2022-09-03T00:28:27.676Z,2.00
2022-09-03T00:31:15.233Z,1.95
2022-09-03T00:33:54.268Z,1.73
2022-09-03T00:36:32.035Z,1.58
2022-09-03T00:39:00.592Z,1.67
2022-09-03T00:41:37.633Z,1.63
2022-09-03T00:44:16.899Z,2.00
2022-09-03T00:46:53.674Z,1.98
2022-09-03T00:49:30.408Z,2.10
2022-09-03T00:52:08.950Z,2.25
2022-09-03T00:54:42.365Z,2.30
2022-09-03T00:57:19.502Z,2.17
2022-09-03T00:59:52.198Z,1.88
2022-09-03T01:02:38.093Z,2.03
2022-09-03T01:05:14.661Z,1.90
2022-09-03T01:07:57.224Z,1.88
2022-09-03T01:10:32.540Z,1.98
2022-09-03T01:13:03.378Z,1.65
2022-09-03T01:15:37.549Z,1.50
2022-09-03T01:18:13.291Z,1.73
2022-09-03T01:20:56.843Z,1.77
2022-09-03T01:23:36.169Z,1.75
2022-09-03T01:26:11.944Z,1.70
2022-09-03T01:28:53.752Z,1.80
2022-09-03T01:31:33.917Z,1.65
2022-09-03T01:34:09.193Z,1.67
2022-09-03T01:36:44.614Z,1.52
2022-09-03T01:39:29.128Z,1.50
2022-09-03T01:42:10.996Z,1.50
2022-09-03T01:44:49.907Z,1.55
2022-09-03T01:47:33.305Z,1.40
2022-09-03T01:50:06.114Z,1.70
2022-09-03T01:52:39.940Z,1.83
2022-09-03T01:55:14.977Z,1.75
2022-09-03T01:57:52.212Z,1.98
2022-09-03T02:00:23.713Z,1.77
2022-09-03T02:02:53.579Z,1.70
2022-09-03T02:05:26.231Z,1.88
2022-09-03T02:07:58.687Z,1.98
2022-09-03T02:10:30.714Z,1.88
2022-09-03T02:13:03.808Z,1.60
2022-09-03T02:15:36.905Z,1.50
2022-09-03T02:18:09.152Z,1.40
2022-09-03T02:20:41.062Z,1.70
2022-09-03T02:23:11.493Z,1.65
2022-09-03T02:25:58.701Z,1.70
2022-09-03T02:28:31.357Z,1.85
2022-09-03T02:31:04.943Z,1.70
2022-09-03T02:33:44.700Z,1.70
2022-09-03T02:36:23.727Z,1.85
2022-09-03T02:39:07.192Z,1.38
2022-09-03T02:41:35.868Z,1.23
2022-09-03T02:44:06.095Z,1.50
2022-09-03T02:46:44.920Z,1.33
2022-09-03T02:49:21.065Z,1.40
2022-09-03T02:52:00.944Z,1.30
2022-09-03T02:54:29.866Z,1.30
2022-09-03T02:57:12.447Z,1.25
2022-09-03T02:59:46.717Z,1.83
2022-09-03T03:02:19.972Z,1.45
2022-09-03T03:04:48.739Z,1.30
2022-09-03T03:07:17.432Z,1.40
2022-09-03T03:09:59.088Z,1.52
2022-09-03T03:12:34.218Z,1.20
2022-09-03T03:15:09.285Z,1.23
2022-09-03T03:18:01.960Z,1.50
2022-09-03T03:21:03.798Z,1.30
2022-09-03T03:23:33.464Z,1.45
2022-09-03T03:26:06.380Z,1.48
2022-09-03T03:28:36.907Z,1.02
2022-09-03T03:31:11.975Z,1.30
2022-09-03T03:34:02.303Z,1.40
2022-09-03T03:36:35.353Z,1.50
2022-09-03T03:39:31.260Z,1.70
2022-09-03T03:42:04.616Z,1.40
2022-09-03T03:44:34.714Z,1.45
2022-09-03T03:47:06.368Z,1.50
2022-09-03T03:49:57.934Z,1.40
2022-09-03T03:52:29.129Z,1.35
2022-09-03T03:54:59.388Z,1.55
2022-09-03T03:57:31.172Z,1.40
2022-09-03T04:03:23.615Z,1.30
2022-09-03T04:06:03.219Z,1.58
2022-09-03T04:08:42.188Z,1.77
2022-09-03T04:11:22.938Z,1.95
2022-09-03T04:13:57.421Z,1.90
2022-09-03T04:17:13.140Z,1.42
2022-09-03T04:19:19.709Z,1.70
2022-09-03T04:21:49.973Z,1.70
2022-09-03T04:24:18.322Z,1.65
2022-09-03T04:26:47.479Z,1.73
2022-09-03T04:29:18.407Z,1.60
2022-09-03T04:32:09.698Z,1.70
2022-09-03T04:34:37.843Z,1.70
2022-09-03T04:37:07.891Z,1.83
2022-09-03T04:39:36.443Z,1.70
2022-09-03T04:42:04.625Z,1.40
2022-09-03T04:44:32.768Z,1.70
2022-09-03T04:47:01.008Z,1.50
2022-09-03T04:49:29.234Z,1.60
2022-09-03T04:51:57.716Z,1.70
2022-09-03T04:54:30.733Z,1.92
2022-09-03T04:56:58.831Z,2.00
2022-09-03T04:59:28.642Z,1.52
2022-09-03T05:01:57.434Z,1.77
2022-09-03T05:04:26.003Z,1.98
2022-09-03T05:06:54.846Z,1.83
2022-09-03T05:09:22.956Z,1.73
2022-09-03T05:11:53.146Z,1.65
2022-09-03T05:14:21.903Z,1.77
2022-09-03T05:16:52.952Z,1.52
2022-09-03T05:19:22.071Z,1.52
2022-09-03T05:21:51.678Z,1.63
2022-09-03T05:24:22.472Z,1.48
2022-09-03T05:26:51.243Z,1.70
2022-09-03T05:29:25.474Z,1.92
2022-09-03T05:31:54.528Z,1.40
2022-09-03T05:34:24.724Z,2.00
2022-09-03T05:36:53.541Z,1.77
2022-09-03T05:39:22.360Z,2.22
2022-09-03T05:41:52.432Z,2.17
2022-09-03T05:44:23.411Z,1.85
2022-09-03T05:46:55.023Z,2.03
2022-09-03T05:49:26.691Z,1.80
2022-09-03T05:51:57.872Z,1.50
2022-09-03T05:54:28.353Z,1.83
2022-09-03T05:56:56.569Z,1.88
2022-09-03T05:59:26.424Z,1.77
2022-09-03T06:01:59.389Z,1.70
2022-09-03T06:04:28.462Z,1.60
2022-09-03T06:06:57.276Z,1.55
2022-09-03T06:09:26.303Z,1.60
2022-09-03T06:11:57.275Z,2.00
2022-09-03T06:14:27.583Z,1.92
2022-09-03T06:17:00.177Z,1.90
2022-09-03T06:19:28.799Z,2.20
2022-09-03T06:21:57.083Z,2.10
2022-09-03T06:24:28.372Z,1.60
2022-09-03T06:26:56.873Z,1.98
2022-09-03T06:29:25.106Z,2.03
2022-09-03T06:31:55.233Z,1.52
2022-09-03T06:34:27.388Z,1.58
2022-09-03T06:36:59.946Z,1.65
2022-09-03T06:39:28.734Z,1.40
2022-09-03T06:42:01.276Z,1.50
2022-09-03T06:44:36.903Z,1.40
2022-09-03T06:47:06.681Z,1.45
2022-09-03T06:49:34.694Z,1.60
2022-09-03T06:52:06.937Z,1.73
2022-09-03T06:54:35.326Z,1.50
2022-09-03T06:57:03.787Z,1.50
2022-09-03T06:59:32.214Z,1.40
2022-09-03T07:02:03.697Z,1.30
2022-09-03T07:04:34.820Z,1.40
2022-09-03T07:07:04.076Z,1.23
2022-09-03T07:09:36.433Z,1.45
2022-09-03T07:12:05.175Z,1.30
2022-09-03T07:14:35.082Z,1.23
2022-09-03T07:17:09.956Z,1.10
2022-09-03T07:20:00.751Z,1.00
2022-09-03T07:22:32.290Z,1.10
2022-09-03T07:25:02.276Z,1.10
2022-09-03T07:27:30.450Z,1.30
2022-09-03T07:29:58.556Z,1.20
2022-09-03T07:32:28.004Z,1.35
2022-09-03T07:35:02.931Z,1.30
2022-09-03T07:37:31.428Z,1.00
2022-09-03T07:40:02.126Z,1.27
2022-09-03T07:42:31.616Z,1.33
2022-09-03T07:44:59.959Z,1.38
2022-09-03T07:47:29.686Z,1.40
2022-09-03T07:49:59.632Z,1.40
2022-09-03T07:52:29.576Z,1.45
2022-09-03T07:54:57.912Z,1.40
2022-09-03T07:57:26.231Z,1.42
2022-09-03T07:59:54.269Z,1.33
2022-09-03T08:02:25.167Z,1.13
2022-09-03T08:04:53.197Z,1.45
2022-09-03T08:07:21.296Z,1.10
2022-09-03T08:09:52.502Z,1.30
2022-09-03T08:12:21.728Z,1.10
2022-09-03T08:14:49.944Z,1.50
2022-09-03T08:17:18.549Z,1.25
2022-09-03T08:19:47.595Z,1.13
2022-09-03T08:22:17.314Z,1.10
2022-09-03T08:24:46.260Z,1.35
2022-09-03T08:27:16.762Z,1.13
2022-09-03T08:29:47.107Z,1.20
2022-09-03T08:32:16.374Z,1.00
2022-09-03T08:34:45.276Z,0.93
2022-09-03T08:37:13.770Z,1.08
2022-09-03T08:39:42.539Z,1.35
2022-09-03T08:42:19.384Z,1.20
2022-09-03T08:44:49.941Z,1.20
2022-09-03T08:47:21.250Z,1.20
2022-09-03T08:49:51.468Z,1.17
2022-09-03T08:52:24.021Z,1.02
2022-09-03T08:54:52.752Z,1.10
2022-09-03T08:57:21.769Z,1.30
2022-09-03T08:59:54.367Z,1.08
2022-09-03T09:02:26.689Z,1.15
2022-09-03T09:05:00.801Z,1.10
2022-09-03T09:07:33.049Z,1.10
2022-09-03T09:10:04.572Z,0.90
2022-09-03T09:12:42.693Z,1.25
2022-09-03T09:15:21.220Z,1.30
2022-09-03T09:17:59.136Z,1.10
2022-09-03T09:20:31.872Z,1.20
2022-09-03T09:23:02.873Z,1.10
2022-09-03T09:25:32.524Z,1.00
2022-09-03T09:28:03.171Z,1.23
2022-09-03T09:30:33.485Z,1.40
2022-09-03T09:33:01.662Z,1.30
2022-09-03T09:35:29.937Z,1.40
2022-09-03T09:38:00.254Z,1.30
2022-09-03T09:40:34.250Z,1.33
2022-09-03T09:43:12.764Z,1.10
2022-09-03T09:45:45.588Z,1.65
2022-09-03T09:48:34.597Z,1.58
2022-09-03T09:51:33.001Z,1.42
2022-09-03T09:54:37.301Z,1.50
2022-09-03T10:01:04.689Z,1.55
2022-09-03T10:03:35.194Z,1.80
2022-09-03T10:06:26.856Z,1.80
2022-09-03T10:09:34.235Z,1.60
2022-09-03T10:12:32.180Z,2.55
2022-09-03T10:15:09.250Z,1.48
2022-09-03T10:17:45.235Z,1.30
2022-09-03T10:20:26.619Z,1.63
2022-09-03T10:23:12.309Z,1.67
2022-09-03T10:25:50.705Z,1.75
2022-09-03T10:28:23.276Z,1.65
2022-09-03T10:30:59.031Z,1.80
2022-09-03T10:33:32.914Z,1.73
2022-09-03T10:36:05.960Z,1.80
2022-09-03T10:38:34.663Z,1.98
2022-09-03T10:41:10.527Z,1.80
2022-09-03T10:43:48.069Z,1.70
2022-09-03T10:46:23.412Z,2.10
2022-09-03T10:49:16.037Z,1.75
2022-09-03T10:51:49.578Z,1.30
2022-09-03T10:54:32.574Z,1.80
2022-09-03T10:57:04.633Z,1.77
2022-09-03T10:59:37.132Z,1.80
2022-09-03T11:02:21.822Z,1.80
2022-09-03T11:04:54.537Z,1.55
2022-09-03T11:07:24.292Z,1.60
2022-09-03T11:09:56.528Z,1.67
2022-09-03T11:12:25.996Z,1.60
2022-09-03T11:14:57.507Z,1.52
2022-09-03T11:17:27.428Z,1.80
2022-09-03T11:19:59.633Z,1.67
2022-09-03T11:22:29.811Z,1.67
2022-09-03T11:24:59.589Z,1.50
2022-09-03T11:27:32.151Z,1.50
2022-09-03T11:30:03.424Z,1.60
2022-09-03T11:32:37.338Z,1.75
2022-09-03T11:35:15.843Z,1.73
2022-09-03T11:37:51.595Z,1.60
2022-09-03T11:40:21.919Z,1.60
2022-09-03T11:42:50.499Z,1.50
2022-09-03T11:45:23.498Z,1.60
2022-09-03T11:47:53.084Z,1.40
2022-09-03T11:50:24.763Z,1.40
2022-09-03T11:52:54.433Z,1.35
2022-09-03T11:55:26.559Z,1.40
2022-09-03T11:57:54.767Z,1.10
2022-09-03T12:00:25.382Z,1.25
2022-09-03T12:02:59.137Z,1.20
2022-09-03T12:05:33.979Z,1.42
2022-09-03T12:08:11.067Z,1.00
2022-09-03T12:10:43.404Z,1.20
2022-09-03T12:13:19.791Z,0.98
2022-09-03T12:15:55.623Z,1.10
2022-09-03T12:18:25.563Z,0.90
2022-09-03T12:21:04.630Z,1.00
2022-09-03T12:23:34.750Z,0.80
2022-09-03T12:26:05.031Z,1.00
2022-09-03T12:28:36.337Z,1.00
2022-09-03T12:31:13.114Z,0.88
2022-09-03T12:33:43.808Z,1.10
2022-09-03T12:36:12.367Z,1.15
2022-09-03T12:39:09.848Z,0.90
2022-09-03T12:41:32.007Z,1.00
2022-09-03T12:44:01.714Z,1.17
2022-09-03T12:46:33.884Z,0.90
2022-09-03T12:51:57.544Z,1.00
2022-09-03T12:54:28.387Z,1.17
2022-09-03T12:56:58.289Z,1.10
2022-09-03T12:59:27.588Z,0.90
2022-09-03T13:01:57.837Z,0.95
2022-09-03T13:04:28.082Z,1.00
2022-09-03T13:06:58.367Z,0.93
2022-09-03T13:09:30.123Z,1.00
2022-09-03T13:11:59.262Z,1.00
2022-09-03T13:14:28.363Z,0.90
2022-09-03T13:17:10.051Z,1.00
2022-09-03T13:19:42.471Z,0.80
2022-09-03T13:22:17.264Z,0.80
2022-09-03T13:24:55.555Z,0.90
2022-09-03T13:27:27.007Z,0.90
2022-09-03T13:30:05.415Z,0.90
2022-09-03T13:32:37.814Z,0.98
2022-09-03T13:35:09.278Z,0.65
2022-09-03T13:37:40.086Z,1.00
2022-09-03T13:40:16.381Z,0.77
2022-09-03T13:42:47.130Z,0.80
2022-09-03T13:45:24.767Z,0.80
2022-09-03T13:48:11.279Z,0.90
2022-09-03T13:50:43.177Z,1.00
2022-09-03T13:53:17.671Z,1.08
2022-09-03T13:55:51.317Z,0.98
2022-09-03T13:58:24.436Z,0.85
2022-09-03T14:01:06.180Z,1.08
2022-09-03T14:03:36.411Z,0.70
2022-09-03T14:06:09.131Z,0.80
2022-09-03T14:08:55.441Z,1.13
2022-09-03T14:11:30.306Z,1.10
2022-09-03T14:14:03.920Z,0.70
2022-09-03T14:16:43.369Z,0.82
2022-09-03T14:19:14.272Z,0.90
2022-09-03T14:21:46.758Z,0.65
2022-09-03T14:24:16.880Z,0.93
2022-09-03T14:26:52.917Z,0.70
2022-09-03T14:29:23.353Z,1.10
2022-09-03T14:32:01.493Z,1.00
2022-09-03T14:34:33.940Z,0.93
2022-09-03T14:37:07.049Z,0.80
2022-09-03T14:39:35.866Z,0.60
2022-09-03T14:42:15.556Z,0.95
2022-09-03T14:44:54.318Z,0.80
2022-09-03T14:47:28.467Z,0.80
2022-09-03T14:50:07.984Z,0.90
2022-09-03T14:52:47.662Z,0.70
2022-09-03T14:55:20.984Z,0.80
2022-09-03T14:57:57.064Z,0.90
2022-09-03T15:00:32.700Z,0.65
2022-09-03T15:03:09.772Z,0.55
2022-09-03T15:05:43.565Z,0.80
2022-09-03T15:08:16.324Z,0.75
2022-09-03T15:10:46.926Z,0.80
2022-09-03T15:13:19.271Z,0.70
2022-09-03T15:15:56.673Z,0.90
2022-09-03T15:18:28.532Z,0.90
2022-09-03T15:21:00.833Z,0.63
2022-09-03T15:23:40.425Z,0.70
2022-09-03T15:26:17.986Z,0.70
2022-09-03T15:28:53.115Z,0.80
2022-09-03T15:31:24.557Z,0.80
2022-09-03T15:33:56.321Z,0.75
2022-09-03T15:36:25.915Z,0.70
2022-09-03T15:38:57.167Z,0.80
2022-09-03T15:41:31.123Z,0.77
2022-09-03T15:44:00.718Z,0.70
2022-09-03T15:46:35.869Z,0.88
2022-09-03T15:49:05.620Z,0.82
2022-09-03T15:51:36.644Z,1.00
2022-09-03T15:54:12.658Z,0.80
2022-09-03T15:56:50.273Z,0.82
2022-09-03T15:59:20.908Z,0.98
2022-09-03T16:01:54.147Z,0.82
2022-09-03T16:04:29.503Z,0.93
2022-09-03T16:07:00.860Z,1.02
2022-09-03T16:09:33.409Z,1.10
2022-09-03T16:12:09.741Z,0.95
2022-09-03T16:14:41.833Z,0.95
2022-09-03T16:17:20.805Z,0.70
2022-09-03T16:19:53.393Z,0.90
2022-09-03T16:22:23.517Z,1.10
2022-09-03T16:24:54.816Z,1.10
2022-09-03T16:27:24.791Z,0.95
2022-09-03T16:29:58.098Z,1.10
2022-09-03T16:32:33.242Z,1.10
2022-09-03T16:35:08.884Z,1.05
2022-09-03T16:37:42.971Z,1.10
2022-09-03T16:40:16.837Z,1.10
2022-09-03T16:42:49.291Z,1.25
2022-09-03T16:45:27.244Z,1.15
2022-09-03T16:48:04.932Z,0.80
2022-09-03T16:50:42.836Z,1.00
2022-09-03T16:53:15.323Z,1.10
2022-09-03T16:55:51.928Z,1.10
2022-09-03T16:58:23.252Z,0.93
2022-09-03T17:01:01.364Z,1.10
2022-09-03T17:03:42.923Z,1.35
2022-09-03T17:06:21.183Z,1.10
2022-09-03T17:08:56.630Z,1.08
2022-09-03T17:11:46.116Z,1.50
2022-09-03T17:14:33.651Z,1.48
2022-09-03T17:17:21.665Z,1.20
2022-09-03T17:20:07.369Z,1.40
2022-09-03T17:22:44.185Z,1.45
2022-09-03T17:25:34.804Z,1.20
2022-09-03T17:28:07.734Z,1.13
2022-09-03T17:31:01.377Z,1.25
2022-09-03T17:33:50.904Z,1.20
2022-09-03T17:36:28.922Z,1.20
2022-09-03T17:39:20.163Z,1.60
2022-09-03T17:41:53.616Z,1.70
2022-09-03T17:44:32.697Z,1.33
2022-09-03T17:47:09.112Z,1.40
2022-09-03T17:49:46.805Z,1.20
2022-09-03T17:52:21.462Z,1.33
2022-09-03T17:54:55.365Z,1.40
2022-09-03T17:57:31.136Z,1.58
2022-09-03T18:00:03.802Z,1.50
2022-09-03T18:02:40.451Z,2.03
2022-09-03T18:05:23.718Z,1.75
2022-09-03T18:08:01.704Z,1.52
2022-09-03T18:10:40.549Z,1.60
2022-09-03T18:13:30.376Z,1.40
2022-09-03T18:16:26.210Z,1.98
2022-09-03T18:19:29.027Z,1.90
2022-09-03T18:22:08.810Z,1.33
2022-09-03T18:25:03.946Z,1.50
2022-09-03T18:27:50.506Z,1.20
2022-09-03T18:33:34.518Z,1.38
2022-09-03T18:36:22.389Z,1.42
2022-09-03T18:39:02.824Z,1.50
2022-09-03T18:42:03.677Z,1.63
2022-09-03T18:45:20.961Z,1.42
2022-09-03T18:48:22.702Z,1.42
2022-09-03T18:51:13.897Z,1.20
2022-09-03T18:54:24.424Z,1.80
2022-09-03T18:57:17.071Z,2.08
2022-09-03T19:03:21.281Z,1.70
2022-09-03T19:09:24.007Z,1.40
2022-09-03T19:12:17.850Z,1.70
2022-09-03T19:15:24.967Z,1.77
2022-09-03T19:18:30.470Z,1.70
2022-09-03T19:24:39.901Z,2.05
2022-09-03T19:27:50.001Z,2.00
2022-09-03T19:30:40.677Z,1.38
2022-09-03T19:33:31.371Z,1.67
2022-09-03T19:36:43.837Z,1.55
2022-09-03T19:39:47.193Z,1.20
2022-09-03T19:45:49.616Z,1.67
2022-09-03T19:51:51.921Z,2.47
2022-09-03T19:54:45.277Z,2.30
2022-09-03T19:57:36.513Z,1.80
2022-09-03T20:00:19.949Z,1.55
2022-09-03T20:03:12.949Z,1.77
2022-09-03T20:09:41.896Z,1.60
2022-09-03T20:12:18.488Z,1.70
2022-09-03T20:14:58.504Z,1.45
2022-09-03T20:17:57.406Z,1.92
2022-09-03T20:20:57.257Z,1.80
2022-09-03T20:23:51.320Z,1.70
2022-09-03T20:26:30.961Z,1.42
2022-09-03T20:29:20.473Z,2.00
2022-09-03T20:32:25.647Z,2.15
2022-09-03T20:35:00.838Z,1.55
2022-09-03T20:37:57.658Z,2.00
2022-09-03T20:40:43.610Z,1.65
2022-09-03T20:43:24.216Z,1.92
2022-09-03T20:46:04.025Z,2.00
2022-09-03T20:48:42.266Z,1.50
2022-09-03T20:52:06.922Z,1.48
2022-09-03T20:57:35.577Z,1.83
2022-09-03T21:00:32.511Z,1.77
2022-09-03T21:03:20.161Z,1.58
2022-09-03T21:06:03.403Z,1.60
2022-09-03T21:08:49.112Z,1.60
2022-09-03T21:11:43.184Z,1.27
2022-09-03T21:14:36.232Z,1.20
2022-09-03T21:17:13.111Z,1.17
2022-09-03T21:19:56.814Z,1.38
2022-09-03T21:22:41.394Z,1.08
2022-09-03T21:25:21.991Z,1.38
2022-09-03T21:28:03.329Z,1.35
2022-09-03T21:30:53.772Z,1.10
2022-09-03T21:33:38.523Z,1.40
2022-09-03T21:36:52.944Z,1.63
2022-09-03T21:39:28.574Z,1.30
2022-09-03T21:46:02.737Z,1.30
2022-09-03T21:48:35.741Z,1.00
2022-09-03T21:51:06.164Z,1.83
2022-09-03T21:53:37.902Z,1.55
2022-09-03T21:56:17.165Z,1.50
2022-09-03T21:58:52.832Z,1.33
2022-09-03T22:01:27.290Z,1.23
2022-09-03T22:03:56.163Z,1.65
2022-09-03T22:06:27.933Z,1.45
2022-09-03T22:08:59.289Z,1.55
2022-09-03T22:11:29.626Z,1.40
2022-09-03T22:14:02.253Z,1.55
2022-09-03T22:16:34.100Z,1.70
2022-09-03T22:19:02.025Z,1.63
2022-09-03T22:21:32.983Z,2.28
2022-09-03T22:24:10.320Z,1.95
2022-09-03T22:26:46.367Z,1.42
2022-09-03T22:29:17.240Z,1.60
2022-09-03T22:31:54.128Z,1.60
2022-09-03T22:34:27.586Z,1.80
2022-09-03T22:36:58.936Z,1.77
2022-09-03T22:39:31.012Z,1.70
2022-09-03T22:42:08.467Z,1.92
2022-09-03T22:44:48.353Z,1.52
2022-09-03T22:47:21.332Z,2.15
2022-09-03T22:49:52.899Z,1.63
2022-09-03T22:52:26.342Z,1.60
2022-09-03T22:55:00.419Z,1.67
2022-09-03T22:57:29.734Z,1.30
2022-09-03T23:00:00.975Z,1.60
2022-09-03T23:02:31.455Z,1.35
2022-09-03T23:05:03.356Z,1.73
2022-09-03T23:07:35.032Z,1.98
2022-09-03T23:10:04.997Z,2.00
2022-09-03T23:12:37.039Z,2.20
2022-09-03T23:15:06.903Z,1.70
2022-09-03T23:17:40.802Z,1.33
2022-09-03T23:22:41.904Z,1.50
2022-09-03T23:25:12.088Z,1.70
2022-09-03T23:27:43.130Z,1.90
2022-09-03T23:30:11.331Z,1.83
2022-09-03T23:32:40.745Z,1.73
2022-09-03T23:35:13.311Z,1.88
2022-09-03T23:37:48.880Z,1.60
2022-09-03T23:40:24.139Z,1.38
2022-09-03T23:42:58.450Z,1.70
2022-09-03T23:45:32.528Z,1.40
2022-09-03T23:48:08.597Z,1.67
2022-09-03T23:50:41.006Z,1.63
2022-09-03T23:53:18.606Z,1.80
2022-09-03T23:55:55.961Z,1.50
2022-09-03T23:58:30.133Z,1.63
